TimeEDT,TemperatureF,Dew PointF,Humidity,Sea Level PressureIn,VisibilityMPH,Wind Direction,Wind SpeedMPH,Gust SpeedMPH,PrecipitationIn,Events,Conditions,WindDirDegrees,DateUTC
12:36 AM,66.2,64.4,94,29.82,10.0,NE,9.2,-,N/A,,Overcast,50,2012-09-06 04:36:00
12:53 AM,66.9,64.9,93,29.82,10.0,NE,10.4,-,N/A,,Overcast,40,2012-09-06 04:53:00
1:14 AM,66.2,64.4,94,29.82,10.0,NE,10.4,-,N/A,,Overcast,40,2012-09-06 05:14:00
1:53 AM,66.0,64.9,96,29.83,10.0,NE,9.2,-,N/A,,Overcast,40,2012-09-06 05:53:00
2:53 AM,66.0,63.0,90,29.83,10.0,NE,6.9,-,N/A,,Overcast,40,2012-09-06 06:53:00
3:53 AM,64.0,63.0,96,29.82,10.0,NE,4.6,-,N/A,,Clear,50,2012-09-06 07:53:00
4:53 AM,63.0,61.0,93,29.84,10.0,Calm,Calm,-,N/A,,Clear,0,2012-09-06 08:53:00
5:53 AM,62.1,61.0,96,29.85,10.0,North,6.9,-,N/A,,Clear,10,2012-09-06 09:53:00
6:53 AM,64.0,62.1,93,29.89,10.0,Calm,Calm,-,N/A,,Clear,0,2012-09-06 10:53:00
7:53 AM,68.0,64.0,87,29.90,10.0,NNE,6.9,-,N/A,,Clear,20,2012-09-06 11:53:00
8:53 AM,69.1,63.0,81,29.89,10.0,NNE,11.5,-,N/A,,Clear,20,2012-09-06 12:53:00
9:53 AM,71.6,62.6,73,29.90,10.0,NE,8.1,-,N/A,,Clear,40,2012-09-06 13:53:00
10:53 AM,72.0,63.0,73,29.89,10.0,ENE,10.4,-,N/A,,Clear,60,2012-09-06 14:53:00
11:53 AM,72.0,62.1,71,29.90,10.0,NE,6.9,-,N/A,,Clear,50,2012-09-06 15:53:00
12:53 PM,72.0,62.1,71,29.91,10.0,ENE,5.8,-,N/A,,Clear,70,2012-09-06 16:53:00
1:53 PM,71.1,63.0,75,29.90,10.0,SE,9.2,-,N/A,,Clear,140,2012-09-06 17:53:00
2:53 PM,69.1,63.0,81,29.88,10.0,SE,5.8,-,N/A,,Clear,130,2012-09-06 18:53:00
3:53 PM,69.1,63.0,81,29.89,10.0,South,5.8,-,N/A,,Clear,170,2012-09-06 19:53:00
4:53 PM,68.0,63.0,84,29.90,10.0,South,5.8,-,N/A,,Clear,190,2012-09-06 20:53:00
5:53 PM,66.9,63.0,87,29.91,10.0,South,6.9,-,N/A,,Clear,170,2012-09-06 21:53:00
6:53 PM,66.0,63.0,90,29.90,10.0,South,6.9,-,N/A,,Clear,170,2012-09-06 22:53:00
7:53 PM,66.0,62.1,87,29.91,10.0,South,5.8,-,N/A,,Clear,170,2012-09-06 23:53:00
8:53 PM,66.0,64.0,93,29.91,10.0,South,5.8,-,N/A,,Clear,180,2012-09-07 00:53:00
9:53 PM,66.0,64.0,93,29.92,10.0,South,4.6,-,N/A,,Clear,190,2012-09-07 01:53:00
10:53 PM,66.0,64.9,96,29.91,10.0,SSE,6.9,-,N/A,,Clear,160,2012-09-07 02:53:00
11:53 PM,66.9,66.0,97,29.91,10.0,South,6.9,-,N/A,,Clear,180,2012-09-07 03:53:00